Terminal Aerodrome Forecast
Issued by NWS

Home | Current Version | Previous Version | Text Only | Print | Product List | Glossary On
Versions: 1 2 3 4 5 6 7 8 9 10 11 12 13 14 15 16
000
FTUS44 KTSA 072022 AAA
TAFRVS
TAF AMD
KRVS 072022Z 0720/0818 02006KT 2SM -RA BR VCTS OVC009CB
      TEMPO 0720/0724 3/4SM +RA BKN008 OVC020
     FM080000 03007KT 4SM RA BR BKN007 OVC015
      TEMPO 0800/0804 1SM +RA OVC007
     FM081100 26010KT 5SM -RA OVC012=

USA.gov is the U.S. government's official web portal to all federal, state and local government web resources and services.